Time;durP1;ratioP1;P1;durP2;ratioP2;P2;SDS_P1;SDS_P2;PMS_P1;PMS_P2;Temp;Humidity;BMP_temperature;BMP_pressure;BME280_temperature;BME280_humidity;BME280_pressure;Samples;Min_cycle;Max_cycle;Signal;HPM_P1;HPM_P2
2022/04/14 00:00:27;;;;;;;12.88;8.80;;;;;;;;;;4925397;29;20274;-64
2022/04/14 00:02:52;;;;;;;16.45;7.93;;;;;;;;;;4925768;29;20115;-65
2022/04/14 00:05:18;;;;;;;17.90;8.70;;;;;;;;;;4924315;29;20044;-64
2022/04/14 00:07:44;;;;;;;20.35;9.05;;;;;;;;;;4926112;29;20040;-64
2022/04/14 00:10:11;;;;;;;14.32;8.30;;;;;;;;;;4920027;29;20040;-64
2022/04/14 00:12:36;;;;;;;14.70;8.40;;;;;;;;;;4925179;29;20090;-64
2022/04/14 00:15:04;;;;;;;18.08;8.60;;;;;;;;;;4927816;29;20052;-64
2022/04/14 00:17:32;;;;;;;22.17;8.48;;;;;;;;;;4927279;29;20030;-63
2022/04/14 00:19:57;;;;;;;11.68;7.70;;;;;;;;;;4930421;29;20028;-65
2022/04/14 00:22:23;;;;;;;15.57;7.80;;;;;;;;;;4926430;29;20310;-64
2022/04/14 00:24:48;;;;;;;12.93;8.02;;;;;;;;;;4927179;29;20039;-65
2022/04/14 00:27:18;;;;;;;13.27;7.90;;;;;;;;;;4926329;29;20044;-65
2022/04/14 00:29:44;;;;;;;9.45;7.38;;;;;;;;;;4925726;29;20064;-63
2022/04/14 00:32:10;;;;;;;12.20;7.75;;;;;;;;;;4934853;29;20039;-65
2022/04/14 00:34:35;;;;;;;13.40;7.72;;;;;;;;;;4925056;29;20217;-65
2022/04/14 00:37:01;;;;;;;10.68;7.78;;;;;;;;;;4922176;29;20044;-64
2022/04/14 00:39:26;;;;;;;14.65;7.25;;;;;;;;;;4925828;28;20329;-65
2022/04/14 00:41:51;;;;;;;16.10;7.30;;;;;;;;;;4928166;29;20063;-64
2022/04/14 00:44:17;;;;;;;15.80;7.60;;;;;;;;;;4915182;29;20044;-69
2022/04/14 00:46:42;;;;;;;10.93;6.68;;;;;;;;;;4909112;29;20048;-63
2022/04/14 00:49:08;;;;;;;10.85;7.07;;;;;;;;;;4910440;29;20064;-64
2022/04/14 00:51:34;;;;;;;11.13;7.28;;;;;;;;;;4906603;29;20084;-64
2022/04/14 00:53:59;;;;;;;10.93;7.00;;;;;;;;;;4909051;29;20063;-63
2022/04/14 00:56:25;;;;;;;11.80;7.03;;;;;;;;;;4906759;29;20099;-65
2022/04/14 00:58:50;;;;;;;16.10;7.10;;;;;;;;;;4909802;29;20273;-64
2022/04/14 01:01:16;;;;;;;17.67;7.57;;;;;;;;;;4907494;29;20036;-65
2022/04/14 01:03:45;;;;;;;10.10;6.80;;;;;;;;;;4916292;29;20377;-62
2022/04/14 01:06:14;;;;;;;13.52;7.53;;;;;;;;;;4904351;29;20338;-63
2022/04/14 01:08:40;;;;;;;11.32;7.65;;;;;;;;;;4904983;29;20107;-65
2022/04/14 01:11:06;;;;;;;16.90;7.13;;;;;;;;;;4905299;29;20036;-65
2022/04/14 01:13:32;;;;;;;12.02;6.30;;;;;;;;;;4912326;29;20040;-64
2022/04/14 01:15:59;;;;;;;11.32;6.60;;;;;;;;;;4907421;29;20071;-63
2022/04/14 01:18:26;;;;;;;11.43;6.40;;;;;;;;;;4908041;29;20044;-63
2022/04/14 01:20:52;;;;;;;13.40;6.60;;;;;;;;;;4906375;29;20075;-63
2022/04/14 01:23:33;;;;;;;11.90;6.53;;;;;;;;;;4908279;29;20295;-65
2022/04/14 01:25:59;;;;;;;10.70;7.28;;;;;;;;;;4928257;29;20039;-65
2022/04/14 01:28:25;;;;;;;12.32;6.80;;;;;;;;;;4927606;29;20352;-65
2022/04/14 01:30:50;;;;;;;12.25;7.25;;;;;;;;;;4924671;29;20043;-65
2022/04/14 01:33:16;;;;;;;10.20;7.05;;;;;;;;;;4924577;29;20401;-68
2022/04/14 01:35:42;;;;;;;14.73;7.28;;;;;;;;;;4924581;29;20035;-65
2022/04/14 01:38:07;;;;;;;13.73;7.07;;;;;;;;;;4927009;29;20043;-65
2022/04/14 01:40:32;;;;;;;14.55;7.32;;;;;;;;;;4936469;29;20054;-65
2022/04/14 01:42:58;;;;;;;17.35;7.47;;;;;;;;;;4926664;28;20229;-65
2022/04/14 01:45:23;;;;;;;14.00;7.10;;;;;;;;;;4912064;29;20040;-65
2022/04/14 01:47:49;;;;;;;13.27;7.53;;;;;;;;;;4915427;29;20164;-64
2022/04/14 01:50:15;;;;;;;14.90;7.43;;;;;;;;;;4917420;29;20059;-65
2022/04/14 01:52:44;;;;;;;12.40;7.63;;;;;;;;;;4912728;29;20076;-64
2022/04/14 01:55:10;;;;;;;13.18;7.82;;;;;;;;;;4907451;29;20079;-65
2022/04/14 01:57:36;;;;;;;11.18;7.60;;;;;;;;;;4912742;29;20056;-64
2022/04/14 02:00:05;;;;;;;13.52;7.93;;;;;;;;;;4915904;29;20240;-64
2022/04/14 02:02:30;;;;;;;13.77;7.75;;;;;;;;;;4907094;29;20289;-62
2022/04/14 02:04:55;;;;;;;14.60;7.82;;;;;;;;;;4915756;29;20032;-65
2022/04/14 02:07:21;;;;;;;12.32;8.07;;;;;;;;;;4911621;29;20124;-65
2022/04/14 02:09:46;;;;;;;13.95;7.10;;;;;;;;;;4913912;29;20044;-65
2022/04/14 02:12:12;;;;;;;10.07;7.22;;;;;;;;;;4913441;29;20040;-66
2022/04/14 02:14:39;;;;;;;12.70;7.40;;;;;;;;;;4909718;29;20047;-65
2022/04/14 02:17:05;;;;;;;13.55;8.07;;;;;;;;;;4914641;29;20305;-64
2022/04/14 02:19:30;;;;;;;12.98;8.45;;;;;;;;;;4917440;29;20210;-64
2022/04/14 02:21:58;;;;;;;12.55;8.43;;;;;;;;;;4916097;29;20080;-65
2022/04/14 02:24:27;;;;;;;14.13;8.40;;;;;;;;;;4910194;29;20051;-65
2022/04/14 02:26:53;;;;;;;12.27;8.23;;;;;;;;;;4915009;29;20112;-65
2022/04/14 02:29:19;;;;;;;14.73;8.98;;;;;;;;;;4914350;29;20284;-65
2022/04/14 02:31:44;;;;;;;12.40;8.60;;;;;;;;;;4912762;29;20326;-65
2022/04/14 02:34:10;;;;;;;12.73;8.93;;;;;;;;;;4913724;29;20040;-65
2022/04/14 02:36:35;;;;;;;17.52;9.48;;;;;;;;;;4911600;29;20040;-66
2022/04/14 02:39:01;;;;;;;16.90;9.07;;;;;;;;;;4912689;29;20060;-65
2022/04/14 02:41:27;;;;;;;13.40;9.18;;;;;;;;;;4915392;29;20249;-65
2022/04/14 02:43:52;;;;;;;15.20;8.70;;;;;;;;;;4913384;29;20048;-65
2022/04/14 02:46:18;;;;;;;17.42;8.68;;;;;;;;;;4914696;29;20076;-65
2022/04/14 02:48:43;;;;;;;20.33;8.95;;;;;;;;;;4914515;29;20040;-65
2022/04/14 02:51:09;;;;;;;13.65;9.23;;;;;;;;;;4912683;29;20036;-64
2022/04/14 02:53:34;;;;;;;17.55;8.98;;;;;;;;;;4908775;29;20232;-65
2022/04/14 02:56:00;;;;;;;14.07;9.43;;;;;;;;;;4910893;29;20091;-65
2022/04/14 02:58:25;;;;;;;16.35;9.57;;;;;;;;;;4915651;29;20082;-64
2022/04/14 03:00:51;;;;;;;17.30;9.52;;;;;;;;;;4915428;29;20056;-65
2022/04/14 03:03:17;;;;;;;14.35;9.13;;;;;;;;;;4914065;29;20335;-64
2022/04/14 03:05:42;;;;;;;16.83;9.60;;;;;;;;;;4904340;29;20063;-64
2022/04/14 03:08:08;;;;;;;13.48;9.05;;;;;;;;;;4914473;29;20032;-64
2022/04/14 03:10:34;;;;;;;13.70;8.63;;;;;;;;;;4920329;29;20052;-66
2022/04/14 03:12:59;;;;;;;14.45;9.48;;;;;;;;;;4915057;29;20118;-65
2022/04/14 03:15:25;;;;;;;16.83;9.45;;;;;;;;;;4917308;29;20078;-70
2022/04/14 03:17:51;;;;;;;18.40;9.25;;;;;;;;;;4911033;29;20056;-63
2022/04/14 03:20:16;;;;;;;17.33;9.50;;;;;;;;;;4918508;29;20028;-65
2022/04/14 03:22:42;;;;;;;17.10;9.40;;;;;;;;;;4913772;29;20044;-65
2022/04/14 03:25:10;;;;;;;16.05;9.75;;;;;;;;;;4913197;29;20232;-64
2022/04/14 03:27:37;;;;;;;15.38;9.27;;;;;;;;;;4913084;29;20324;-65
2022/04/14 03:30:04;;;;;;;15.35;9.75;;;;;;;;;;4913812;29;20036;-65
2022/04/14 03:32:29;;;;;;;16.73;10.20;;;;;;;;;;4912437;29;20265;-66
2022/04/14 03:34:55;;;;;;;14.50;9.60;;;;;;;;;;4917308;29;20047;-65
2022/04/14 03:37:22;;;;;;;17.17;9.75;;;;;;;;;;4916391;29;20048;-65
2022/04/14 03:39:47;;;;;;;14.73;9.63;;;;;;;;;;4911057;29;20082;-65
2022/04/14 03:42:13;;;;;;;17.23;9.85;;;;;;;;;;4911299;29;20314;-65
2022/04/14 03:44:38;;;;;;;17.30;10.55;;;;;;;;;;4913088;29;20314;-65
2022/04/14 03:47:04;;;;;;;19.77;10.27;;;;;;;;;;4919044;29;20048;-65
2022/04/14 03:49:29;;;;;;;18.45;10.27;;;;;;;;;;4921837;29;20063;-65
2022/04/14 03:51:55;;;;;;;22.08;11.57;;;;;;;;;;4917542;29;20379;-65
2022/04/14 03:54:21;;;;;;;15.00;11.35;;;;;;;;;;4915220;29;20338;-65
2022/04/14 03:56:48;;;;;;;14.45;10.55;;;;;;;;;;4921522;29;20032;-65
2022/04/14 03:59:16;;;;;;;16.35;10.10;;;;;;;;;;4915457;29;20096;-65
2022/04/14 04:01:41;;;;;;;16.30;10.80;;;;;;;;;;4913735;29;20107;-64
2022/04/14 04:04:07;;;;;;;17.85;10.68;;;;;;;;;;4920051;29;20044;-66
2022/04/14 04:06:32;;;;;;;16.83;10.55;;;;;;;;;;4914388;29;20056;-64
2022/04/14 04:08:58;;;;;;;15.75;10.75;;;;;;;;;;4914784;28;20376;-65
2022/04/14 04:11:23;;;;;;;18.98;11.05;;;;;;;;;;4915412;29;20274;-64
2022/04/14 04:13:49;;;;;;;16.38;10.40;;;;;;;;;;4917780;29;20217;-65
2022/04/14 04:16:14;;;;;;;16.58;11.48;;;;;;;;;;4915087;29;20072;-65
2022/04/14 04:18:40;;;;;;;18.17;10.65;;;;;;;;;;4919153;29;20261;-65
2022/04/14 04:21:05;;;;;;;18.65;10.48;;;;;;;;;;4916630;29;20051;-65
2022/04/14 04:23:31;;;;;;;17.38;11.15;;;;;;;;;;4910513;29;20036;-64
2022/04/14 04:25:56;;;;;;;18.75;10.43;;;;;;;;;;4933781;29;20039;-65
2022/04/14 04:28:30;;;;;;;18.45;10.85;;;;;;;;;;4934621;29;20063;-64
2022/04/14 04:30:56;;;;;;;15.60;10.20;;;;;;;;;;4937248;28;21038;-64
2022/04/14 04:33:22;;;;;;;17.20;10.68;;;;;;;;;;4932544;29;20153;-64
2022/04/14 04:35:50;;;;;;;17.15;11.48;;;;;;;;;;4934405;28;20043;-64
2022/04/14 04:38:15;;;;;;;17.52;10.85;;;;;;;;;;4927463;29;20036;-65
2022/04/14 04:40:40;;;;;;;19.15;12.18;;;;;;;;;;4934631;29;20059;-65
2022/04/14 04:43:06;;;;;;;19.33;12.15;;;;;;;;;;4926255;29;20051;-64
2022/04/14 04:45:32;;;;;;;18.10;11.20;;;;;;;;;;4936824;29;20214;-65
2022/04/14 04:48:02;;;;;;;22.63;11.43;;;;;;;;;;4932351;29;20233;-64
2022/04/14 04:50:28;;;;;;;18.05;11.27;;;;;;;;;;4938191;29;20094;-65
2022/04/14 04:52:54;;;;;;;18.00;12.00;;;;;;;;;;4931768;29;20348;-65
2022/04/14 04:55:20;;;;;;;20.27;12.85;;;;;;;;;;4931595;29;20087;-65
2022/04/14 04:57:46;;;;;;;17.73;13.15;;;;;;;;;;4937556;28;20063;-55
2022/04/14 05:00:11;;;;;;;22.50;13.27;;;;;;;;;;4932466;29;20103;-56
2022/04/14 05:02:37;;;;;;;17.23;12.48;;;;;;;;;;4938318;29;20338;-53
2022/04/14 05:05:03;;;;;;;19.70;13.45;;;;;;;;;;4933770;29;20103;-56
2022/04/14 05:07:29;;;;;;;24.85;14.23;;;;;;;;;;4928724;29;20052;-57
2022/04/14 05:09:54;;;;;;;18.75;13.57;;;;;;;;;;4932755;29;20044;-55
2022/04/14 05:12:19;;;;;;;16.58;11.60;;;;;;;;;;4934767;28;20067;-57
2022/04/14 05:14:45;;;;;;;18.80;11.95;;;;;;;;;;4930242;29;20284;-57
2022/04/14 05:17:10;;;;;;;18.60;11.30;;;;;;;;;;4926672;29;20317;-59
2022/04/14 05:19:36;;;;;;;22.52;14.57;;;;;;;;;;4928193;29;20360;-57
2022/04/14 05:22:04;;;;;;;19.42;13.70;;;;;;;;;;4930025;29;20043;-56
2022/04/14 05:24:31;;;;;;;19.00;13.15;;;;;;;;;;4928399;29;20043;-56
2022/04/14 05:26:57;;;;;;;20.75;12.80;;;;;;;;;;4929596;29;20048;-55
2022/04/14 05:29:23;;;;;;;20.17;14.23;;;;;;;;;;4924721;29;20039;-55
2022/04/14 05:31:49;;;;;;;20.23;13.20;;;;;;;;;;4932303;29;20046;-58
2022/04/14 05:34:15;;;;;;;24.52;14.73;;;;;;;;;;4926043;29;20353;-57
2022/04/14 05:36:41;;;;;;;20.17;14.00;;;;;;;;;;4934616;29;20055;-57
2022/04/14 05:39:07;;;;;;;21.92;14.23;;;;;;;;;;4926869;29;20047;-58
2022/04/14 05:41:35;;;;;;;20.17;13.10;;;;;;;;;;4926016;29;20039;-58
2022/04/14 05:44:02;;;;;;;19.98;13.05;;;;;;;;;;4924013;29;20063;-56
2022/04/14 05:46:27;;;;;;;18.67;12.82;;;;;;;;;;4927697;28;20110;-56
2022/04/14 05:48:53;;;;;;;22.45;13.50;;;;;;;;;;4924967;29;20055;-57
2022/04/14 05:51:21;;;;;;;17.92;11.95;;;;;;;;;;4925955;29;20063;-56
2022/04/14 05:53:53;;;;;;;19.67;12.48;;;;;;;;;;4923943;29;20047;-54
2022/04/14 05:56:19;;;;;;;18.05;12.05;;;;;;;;;;4932270;29;20036;-59
2022/04/14 05:58:45;;;;;;;19.88;11.98;;;;;;;;;;4932894;29;20230;-53
2022/04/14 06:01:12;;;;;;;17.08;10.85;;;;;;;;;;4933394;29;20111;-58
2022/04/14 06:03:39;;;;;;;17.70;12.25;;;;;;;;;;4930209;29;20111;-57
2022/04/14 06:06:10;;;;;;;18.45;12.82;;;;;;;;;;4934411;28;20043;-57
2022/04/14 06:08:36;;;;;;;23.77;14.95;;;;;;;;;;4922555;29;20269;-59
2022/04/14 06:11:05;;;;;;;21.15;14.77;;;;;;;;;;4933469;29;20056;-57
2022/04/14 06:13:31;;;;;;;16.48;12.05;;;;;;;;;;4933597;28;20074;-56
2022/04/14 06:15:59;;;;;;;20.95;12.82;;;;;;;;;;4934135;28;20062;-60
2022/04/14 06:18:25;;;;;;;18.73;12.48;;;;;;;;;;4920924;29;20044;-58
2022/04/14 06:20:54;;;;;;;19.98;12.43;;;;;;;;;;4932145;28;20232;-57
2022/04/14 06:23:20;;;;;;;16.73;11.88;;;;;;;;;;4928927;29;20095;-57
2022/04/14 06:25:55;;;;;;;22.58;13.25;;;;;;;;;;4927144;29;20036;-56
2022/04/14 06:28:20;;;;;;;21.90;12.77;;;;;;;;;;4926369;28;20052;-62
2022/04/14 06:30:46;;;;;;;19.48;12.18;;;;;;;;;;4920069;29;20382;-57
2022/04/14 06:33:12;;;;;;;16.98;12.27;;;;;;;;;;4925074;29;20310;-55
2022/04/14 06:35:40;;;;;;;20.98;13.73;;;;;;;;;;4925591;28;20075;-59
2022/04/14 06:38:09;;;;;;;20.85;13.45;;;;;;;;;;4928785;29;20086;-56
2022/04/14 06:40:35;;;;;;;19.13;13.55;;;;;;;;;;4924906;29;20251;-60
2022/04/14 06:43:01;;;;;;;18.42;12.65;;;;;;;;;;4930759;29;20039;-58
2022/04/14 06:45:27;;;;;;;21.48;13.13;;;;;;;;;;4932942;29;20056;-54
2022/04/14 06:47:53;;;;;;;25.75;13.48;;;;;;;;;;4932183;28;20036;-53
2022/04/14 06:50:19;;;;;;;21.77;12.43;;;;;;;;;;4929040;29;20032;-52
2022/04/14 06:52:45;;;;;;;18.58;12.32;;;;;;;;;;4931434;29;20218;-60
2022/04/14 06:55:10;;;;;;;18.30;12.38;;;;;;;;;;4931858;28;20051;-62
2022/04/14 06:57:36;;;;;;;18.08;12.95;;;;;;;;;;4930440;28;20107;-57
2022/04/14 07:00:03;;;;;;;23.10;13.02;;;;;;;;;;4930412;29;20321;-54
2022/04/14 07:02:31;;;;;;;25.45;13.45;;;;;;;;;;4929422;29;20219;-56
2022/04/14 07:04:57;;;;;;;21.17;12.13;;;;;;;;;;4927476;29;20336;-55
2022/04/14 07:07:22;;;;;;;23.23;13.38;;;;;;;;;;4927463;28;20072;-57
2022/04/14 07:09:47;;;;;;;19.20;12.95;;;;;;;;;;4920302;29;20045;-56
2022/04/14 07:12:13;;;;;;;24.45;13.13;;;;;;;;;;4920879;29;20028;-56
2022/04/14 07:14:39;;;;;;;24.75;13.15;;;;;;;;;;4921109;29;20195;-55
2022/04/14 07:17:05;;;;;;;19.83;13.40;;;;;;;;;;4917032;29;20032;-55
2022/04/14 07:19:31;;;;;;;19.35;12.35;;;;;;;;;;4924824;29;20215;-55
2022/04/14 07:21:56;;;;;;;18.00;12.10;;;;;;;;;;4927794;29;20067;-58
2022/04/14 07:24:21;;;;;;;23.63;13.52;;;;;;;;;;4926428;29;20111;-54
2022/04/14 07:26:47;;;;;;;19.13;12.55;;;;;;;;;;4926467;29;20376;-56
2022/04/14 07:29:13;;;;;;;16.50;11.60;;;;;;;;;;4928617;29;20064;-55
2022/04/14 07:31:41;;;;;;;15.57;10.95;;;;;;;;;;4922817;29;20106;-55
2022/04/14 07:34:08;;;;;;;18.98;12.95;;;;;;;;;;4926099;29;20127;-54
2022/04/14 07:36:33;;;;;;;21.58;12.10;;;;;;;;;;4926029;29;20036;-55
2022/04/14 07:39:00;;;;;;;19.85;11.85;;;;;;;;;;4932283;29;20043;-56
2022/04/14 07:41:26;;;;;;;19.73;12.02;;;;;;;;;;4923795;29;20241;-53
2022/04/14 07:43:56;;;;;;;18.70;12.23;;;;;;;;;;4921874;29;20044;-55
2022/04/14 07:46:21;;;;;;;18.33;12.23;;;;;;;;;;4922107;29;20119;-55
2022/04/14 07:48:47;;;;;;;20.13;12.77;;;;;;;;;;4928024;29;20067;-55
2022/04/14 07:51:12;;;;;;;19.02;12.07;;;;;;;;;;4924103;28;20048;-56
2022/04/14 07:53:37;;;;;;;17.98;11.93;;;;;;;;;;4921986;29;20037;-54
2022/04/14 07:56:06;;;;;;;17.85;11.75;;;;;;;;;;4929001;29;20032;-56
2022/04/14 07:58:32;;;;;;;19.48;11.63;;;;;;;;;;4919257;29;20044;-53
2022/04/14 08:00:57;;;;;;;21.15;12.30;;;;;;;;;;4927326;29;20052;-56
2022/04/14 08:03:23;;;;;;;20.73;12.60;;;;;;;;;;4923225;28;20044;-56
2022/04/14 08:05:48;;;;;;;22.48;12.45;;;;;;;;;;4924402;29;20036;-56
2022/04/14 08:08:19;;;;;;;21.52;13.15;;;;;;;;;;4922714;29;20122;-57
2022/04/14 08:10:49;;;;;;;19.70;12.63;;;;;;;;;;4926589;29;20051;-57
2022/04/14 08:13:18;;;;;;;20.52;12.88;;;;;;;;;;4926703;29;20360;-57
2022/04/14 08:15:44;;;;;;;20.30;13.07;;;;;;;;;;4925222;29;20374;-57
2022/04/14 08:18:10;;;;;;;19.13;13.02;;;;;;;;;;4922770;29;20102;-57
2022/04/14 08:20:39;;;;;;;19.52;14.10;;;;;;;;;;4926961;29;20104;-55
2022/04/14 08:23:06;;;;;;;21.02;13.75;;;;;;;;;;4922403;29;20232;-57
2022/04/14 08:25:35;;;;;;;21.08;13.63;;;;;;;;;;4926907;29;20048;-56
2022/04/14 08:28:03;;;;;;;17.73;13.50;;;;;;;;;;4940690;29;20162;-54
2022/04/14 08:30:30;;;;;;;25.70;14.13;;;;;;;;;;4929375;29;20068;-58
2022/04/14 08:32:57;;;;;;;23.33;14.18;;;;;;;;;;4920725;28;20055;-56
2022/04/14 08:35:23;;;;;;;22.75;13.80;;;;;;;;;;4928541;29;20044;-56
2022/04/14 08:37:49;;;;;;;19.70;13.20;;;;;;;;;;4926589;29;20060;-53
2022/04/14 08:40:17;;;;;;;21.17;13.48;;;;;;;;;;4925388;29;20407;-56
2022/04/14 08:42:59;;;;;;;28.88;18.00;;;;;;;;;;4933750;29;20048;-55
2022/04/14 08:45:55;;;;;;;22.38;13.82;;;;;;;;;;4927413;29;20253;-54
2022/04/14 08:48:24;;;;;;;21.55;13.90;;;;;;;;;;4929893;29;20075;-55
2022/04/14 08:50:50;;;;;;;20.88;13.82;;;;;;;;;;4925064;29;20275;-54
2022/04/14 08:53:23;;;;;;;21.05;14.13;;;;;;;;;;4931267;29;20277;-55
2022/04/14 08:55:50;;;;;;;23.38;13.98;;;;;;;;;;4927445;29;20468;-53
2022/04/14 08:58:19;;;;;;;20.95;14.20;;;;;;;;;;4933012;29;20077;-56
2022/04/14 09:00:45;;;;;;;23.33;15.07;;;;;;;;;;4927812;28;20055;-57
2022/04/14 09:03:16;;;;;;;23.05;13.88;;;;;;;;;;4932482;29;20048;-56
2022/04/14 09:05:42;;;;;;;21.75;14.38;;;;;;;;;;4927354;29;20072;-55
2022/04/14 09:08:08;;;;;;;20.02;14.13;;;;;;;;;;4931161;29;20028;-55
2022/04/14 09:10:36;;;;;;;20.30;13.77;;;;;;;;;;4922740;29;20063;-56
2022/04/14 09:13:01;;;;;;;23.58;13.20;;;;;;;;;;4925810;29;20075;-55
2022/04/14 09:15:27;;;;;;;19.90;12.90;;;;;;;;;;4928754;29;20056;-57
2022/04/14 09:17:54;;;;;;;21.42;13.30;;;;;;;;;;4932185;29;20242;-56
2022/04/14 09:20:29;;;;;;;19.95;13.65;;;;;;;;;;4929803;29;20052;-61
2022/04/14 09:23:11;;;;;;;20.60;13.20;;;;;;;;;;4919529;29;20336;-59
2022/04/14 09:25:39;;;;;;;17.38;13.10;;;;;;;;;;4928004;29;20223;-60
2022/04/14 09:28:16;;;;;;;20.65;12.75;;;;;;;;;;4927358;29;20036;-62
2022/04/14 09:30:57;;;;;;;18.10;12.23;;;;;;;;;;4933251;28;20083;-61
2022/04/14 09:33:23;;;;;;;17.77;11.65;;;;;;;;;;4924005;29;20067;-61
2022/04/14 09:36:03;;;;;;;19.80;12.20;;;;;;;;;;4927371;29;20043;-61
2022/04/14 09:38:28;;;;;;;17.63;11.02;;;;;;;;;;4924089;29;20124;-60
2022/04/14 09:40:57;;;;;;;18.63;11.38;;;;;;;;;;4926540;29;20043;-61
2022/04/14 09:43:23;;;;;;;15.95;11.35;;;;;;;;;;4927709;29;20044;-60
2022/04/14 09:45:49;;;;;;;18.00;10.50;;;;;;;;;;4928303;29;20066;-61
2022/04/14 09:48:17;;;;;;;16.65;11.00;;;;;;;;;;4934659;29;20340;-61
2022/04/14 09:50:50;;;;;;;16.75;10.93;;;;;;;;;;4932364;29;20031;-61
2022/04/14 09:53:19;;;;;;;14.07;10.30;;;;;;;;;;4927483;29;20044;-70
2022/04/14 09:55:51;;;;;;;14.57;9.73;;;;;;;;;;4929424;29;20069;-61
2022/04/14 09:58:18;;;;;;;16.60;8.93;;;;;;;;;;4926792;29;20236;-61
2022/04/14 10:00:47;;;;;;;14.15;8.48;;;;;;;;;;4931022;28;20047;-61
2022/04/14 10:03:20;;;;;;;15.23;8.32;;;;;;;;;;4927801;29;20036;-61
2022/04/14 10:05:47;;;;;;;;;;;;;;;;;;4926335;29;20023;-58
2022/04/14 10:08:15;;;;;;;13.68;7.35;;;;;;;;;;4935693;29;19930;-61
2022/04/14 10:10:48;;;;;;;11.23;7.20;;;;;;;;;;4926398;29;20262;-61
2022/04/14 10:13:14;;;;;;;;;;;;;;;;;;4926759;29;20050;-59
2022/04/14 10:15:47;;;;;;;11.70;7.82;;;;;;;;;;4925166;29;20002;-60
2022/04/14 10:18:17;;;;;;;12.32;7.57;;;;;;;;;;4928281;29;20047;-61
2022/04/14 10:20:46;;;;;;;10.73;7.35;;;;;;;;;;4929559;29;20028;-60
2022/04/14 10:23:14;;;;;;;10.57;7.45;;;;;;;;;;4931455;29;20114;-61
2022/04/14 10:25:42;;;;;;;12.80;7.82;;;;;;;;;;4925489;29;20055;-60
2022/04/14 10:28:16;;;;;;;10.75;7.18;;;;;;;;;;4922593;29;20103;-61
2022/04/14 10:30:52;;;;;;;10.00;7.43;;;;;;;;;;4932683;29;20214;-61
2022/04/14 10:33:19;;;;;;;11.15;7.38;;;;;;;;;;4923179;29;20042;-60
2022/04/14 10:35:49;;;;;;;14.98;8.25;;;;;;;;;;4929052;29;20386;-60
2022/04/14 10:38:33;;;;;;;14.43;8.00;;;;;;;;;;4927628;29;20451;-61
2022/04/14 10:41:00;;;;;;;11.48;7.35;;;;;;;;;;4931628;29;20095;-60
2022/04/14 10:43:34;;;;;;;12.88;7.50;;;;;;;;;;4925824;29;20046;-61
2022/04/14 10:46:03;;;;;;;11.85;7.45;;;;;;;;;;4919335;28;20043;-61
2022/04/14 10:48:39;;;;;;;13.98;8.02;;;;;;;;;;4931447;29;20036;-61
2022/04/14 10:51:19;;;;;;;11.70;7.15;;;;;;;;;;4926356;29;20036;-61
2022/04/14 10:54:11;;;;;;;11.38;7.07;;;;;;;;;;4924385;29;20237;-61
2022/04/14 10:56:37;;;;;;;8.75;6.60;;;;;;;;;;4923386;29;20044;-62
2022/04/14 10:59:04;;;;;;;12.23;6.90;;;;;;;;;;4929247;29;20337;-61
2022/04/14 11:01:51;;;;;;;11.02;6.30;;;;;;;;;;4927001;28;20040;-63
2022/04/14 11:04:26;;;;;;;9.93;6.75;;;;;;;;;;4927181;29;20229;-62
2022/04/14 11:07:14;;;;;;;10.52;7.20;;;;;;;;;;4930814;29;20090;-61
2022/04/14 11:09:41;;;;;;;11.25;7.10;;;;;;;;;;4935292;29;20066;-60
2022/04/14 11:12:14;;;;;;;11.75;7.15;;;;;;;;;;4932627;29;20071;-61
2022/04/14 11:14:58;;;;;;;;;;;;;;;;;;4925107;29;20062;-59
2022/04/14 11:17:50;;;;;;;10.18;6.07;;;;;;;;;;4922118;29;20216;-61
2022/04/14 11:20:20;;;;;;;9.88;5.90;;;;;;;;;;4927986;29;20340;-61
2022/04/14 11:23:11;;;;;;;10.30;5.22;;;;;;;;;;4927637;29;20035;-61
2022/04/14 11:25:48;;;;;;;9.32;5.40;;;;;;;;;;4922246;29;20040;-61
2022/04/14 11:28:36;;;;;;;10.98;5.60;;;;;;;;;;4925151;29;20051;-60
2022/04/14 11:31:05;;;;;;;8.60;4.72;;;;;;;;;;4931378;28;20032;-60
2022/04/14 11:33:30;;;;;;;12.57;5.20;;;;;;;;;;4926112;29;20131;-62
2022/04/14 11:36:09;;;;;;;10.02;4.20;;;;;;;;;;4931166;29;20047;-61
2022/04/14 11:38:56;;;;;;;7.68;4.43;;;;;;;;;;4927289;29;20120;-60
2022/04/14 11:41:39;;;;;;;5.60;3.58;;;;;;;;;;4923208;28;20342;-61
2022/04/14 11:44:07;;;;;;;7.43;2.63;;;;;;;;;;4926652;29;20047;-63
2022/04/14 11:46:34;;;;;;;5.18;3.00;;;;;;;;;;4929444;29;20055;-61
2022/04/14 11:49:00;;;;;;;4.40;2.70;;;;;;;;;;4929788;28;20036;-61
2022/04/14 11:51:27;;;;;;;4.95;3.08;;;;;;;;;;4932784;29;20066;-62
2022/04/14 11:53:54;;;;;;;6.63;2.58;;;;;;;;;;4929462;29;20048;-61
2022/04/14 11:56:19;;;;;;;7.38;2.58;;;;;;;;;;4922987;29;20258;-61
2022/04/14 11:58:46;;;;;;;6.22;3.03;;;;;;;;;;4924707;29;20066;-60
2022/04/14 12:01:12;;;;;;;4.03;2.63;;;;;;;;;;4923967;29;20024;-63
2022/04/14 12:03:58;;;;;;;4.70;2.78;;;;;;;;;;4926429;29;20050;-60
2022/04/14 12:06:23;;;;;;;6.13;2.75;;;;;;;;;;4931294;29;20099;-61
2022/04/14 12:08:54;;;;;;;7.68;2.88;;;;;;;;;;4931984;28;20040;-60
2022/04/14 12:11:20;;;;;;;6.68;3.88;;;;;;;;;;4930221;29;20096;-61
2022/04/14 12:13:46;;;;;;;5.28;3.53;;;;;;;;;;4936288;28;20044;-61
2022/04/14 12:16:12;;;;;;;5.53;3.38;;;;;;;;;;4927088;29;20031;-62
2022/04/14 12:18:47;;;;;;;4.57;3.38;;;;;;;;;;4937419;28;20043;-62
2022/04/14 12:21:25;;;;;;;4.80;2.90;;;;;;;;;;4922299;29;20040;-62
2022/04/14 12:23:53;;;;;;;5.22;3.22;;;;;;;;;;4930123;29;20170;-62
2022/04/14 12:26:20;;;;;;;4.93;2.85;;;;;;;;;;4929512;29;20096;-61
2022/04/14 12:28:46;;;;;;;8.63;3.40;;;;;;;;;;4930226;29;20111;-61
2022/04/14 12:31:13;;;;;;;6.93;3.22;;;;;;;;;;4930600;29;20102;-62
2022/04/14 12:33:39;;;;;;;6.97;2.90;;;;;;;;;;4929828;29;20094;-61
2022/04/14 12:36:06;;;;;;;5.03;3.22;;;;;;;;;;4928012;29;20043;-66
2022/04/14 12:38:49;;;;;;;9.13;3.20;;;;;;;;;;4926788;29;20045;-60
2022/04/14 12:41:19;;;;;;;4.53;2.53;;;;;;;;;;4936292;29;20278;-65
2022/04/14 12:43:50;;;;;;;5.75;3.35;;;;;;;;;;4930868;29;20056;-61
2022/04/14 12:46:22;;;;;;;5.20;2.70;;;;;;;;;;4929349;29;20138;-62
2022/04/14 12:48:59;;;;;;;4.35;3.00;;;;;;;;;;4928916;29;20217;-61
2022/04/14 12:51:41;;;;;;;4.72;2.78;;;;;;;;;;4941130;29;20205;-61
2022/04/14 12:54:14;;;;;;;5.28;2.60;;;;;;;;;;4928013;29;20104;-61
2022/04/14 12:56:39;;;;;;;;;;;;;;;;;;4927061;29;20047;-60
2022/04/14 12:59:16;;;;;;;4.88;2.47;;;;;;;;;;4930038;29;19922;-60
2022/04/14 13:01:52;;;;;;;4.03;2.47;;;;;;;;;;4926795;29;20062;-59
2022/04/14 13:04:40;;;;;;;3.20;2.00;;;;;;;;;;4935685;29;20048;-61
2022/04/14 13:07:15;;;;;;;5.68;1.95;;;;;;;;;;4928575;29;20040;-61
2022/04/14 13:09:57;;;;;;;5.03;1.98;;;;;;;;;;4929404;29;20049;-61
2022/04/14 13:12:45;;;;;;;5.07;2.40;;;;;;;;;;4931179;28;20083;-61
2022/04/14 13:15:15;;;;;;;4.10;2.40;;;;;;;;;;4926811;29;20262;-61
2022/04/14 13:17:43;;;;;;;3.75;1.95;;;;;;;;;;4930706;29;20229;-60
2022/04/14 13:20:16;;;;;;;5.55;2.00;;;;;;;;;;4925533;29;20040;-61
2022/04/14 13:22:42;;;;;;;;;;;;;;;;;;4931774;29;20155;-59
2022/04/14 13:25:08;;;;;;;7.03;2.30;;;;;;;;;;4922627;29;19922;-60
2022/04/14 13:27:34;;;;;;;4.97;2.30;;;;;;;;;;4933583;29;20233;-61
2022/04/14 13:30:00;;;;;;;3.97;1.90;;;;;;;;;;4927973;29;20068;-62
2022/04/14 13:32:27;;;;;;;6.47;2.20;;;;;;;;;;4924450;28;20178;-61
2022/04/14 13:34:54;;;;;;;6.93;2.30;;;;;;;;;;4930866;29;20045;-62
2022/04/14 13:37:20;;;;;;;7.47;1.98;;;;;;;;;;4930381;29;20046;-61
2022/04/14 13:39:46;;;;;;;4.68;1.70;;;;;;;;;;4927938;29;20044;-60
2022/04/14 13:42:12;;;;;;;3.53;1.52;;;;;;;;;;4931027;28;20032;-61
2022/04/14 13:44:43;;;;;;;3.80;1.60;;;;;;;;;;4932916;29;20048;-61
2022/04/14 13:47:10;;;;;;;2.72;1.88;;;;;;;;;;4928847;29;20055;-60
2022/04/14 13:49:36;;;;;;;2.70;1.40;;;;;;;;;;4929575;29;20048;-60
2022/04/14 13:52:04;;;;;;;4.43;1.52;;;;;;;;;;4934500;29;20248;-63
2022/04/14 13:54:34;;;;;;;2.47;1.00;;;;;;;;;;4930615;29;20110;-62
2022/04/14 13:57:00;;;;;;;4.13;0.98;;;;;;;;;;4928569;29;20031;-61
2022/04/14 13:59:26;;;;;;;1.45;0.95;;;;;;;;;;4931129;29;20044;-61
2022/04/14 14:01:52;;;;;;;3.08;1.02;;;;;;;;;;4928814;29;20320;-60
2022/04/14 14:04:20;;;;;;;1.35;0.70;;;;;;;;;;4931097;29;20056;-61
2022/04/14 14:06:49;;;;;;;2.38;0.80;;;;;;;;;;4930670;29;20066;-60
2022/04/14 14:09:15;;;;;;;4.63;1.30;;;;;;;;;;4930161;29;20047;-63
2022/04/14 14:11:41;;;;;;;2.30;0.90;;;;;;;;;;4931005;29;20226;-60
2022/04/14 14:14:06;;;;;;;1.02;0.70;;;;;;;;;;4936675;29;20090;-60
2022/04/14 14:16:33;;;;;;;2.72;1.10;;;;;;;;;;4928267;29;20060;-60
2022/04/14 14:18:59;;;;;;;2.90;1.00;;;;;;;;;;4929422;29;20043;-61
2022/04/14 14:21:26;;;;;;;2.75;1.02;;;;;;;;;;4925105;29;20199;-61
2022/04/14 14:23:52;;;;;;;1.73;1.17;;;;;;;;;;4932007;29;20046;-62
2022/04/14 14:26:18;;;;;;;3.38;1.00;;;;;;;;;;4924578;29;20035;-61
2022/04/14 14:28:43;;;;;;;5.10;1.20;;;;;;;;;;4933745;29;20052;-60
2022/04/14 14:31:11;;;;;;;6.03;0.93;;;;;;;;;;4925771;29;20043;-60
2022/04/14 14:33:38;;;;;;;2.17;0.85;;;;;;;;;;4924864;29;20044;-60